Time;durP1;ratioP1;P1;durP2;ratioP2;P2;SDS_P1;SDS_P2;PMS_P1;PMS_P2;Temp;Humidity;BMP_temperature;BMP_pressure;BME280_temperature;BME280_humidity;BME280_pressure;Samples;Min_cycle;Max_cycle;Signal;HPM_P1;HPM_P2
2023/12/06 00:02:04;;;;;;;45.40;30.97;;;2.90;99.90;;;;;;6211247;23;20195;-74
2023/12/06 00:04:30;;;;;;;49.47;32.63;;;2.90;99.90;;;;;;6211115;23;20083;-74
2023/12/06 00:06:56;;;;;;;48.10;33.17;;;3.00;99.90;;;;;;6211059;23;20059;-75
2023/12/06 00:09:21;;;;;;;48.57;33.00;;;3.00;99.90;;;;;;6210979;23;20008;-75
2023/12/06 00:11:47;;;;;;;46.70;32.50;;;2.90;99.90;;;;;;6212028;23;20013;-74
2023/12/06 00:14:12;;;;;;;46.17;31.07;;;3.00;99.90;;;;;;6213010;23;20005;-74
2023/12/06 00:16:39;;;;;;;46.87;29.57;;;3.00;99.90;;;;;;6184682;23;20024;-74
2023/12/06 00:19:05;;;;;;;46.73;30.97;;;3.00;99.90;;;;;;6212677;23;20005;-75
2023/12/06 00:21:31;;;;;;;43.10;29.23;;;3.00;99.90;;;;;;6212438;23;20123;-75
2023/12/06 00:23:57;;;;;;;43.67;30.03;;;3.00;99.90;;;;;;6213328;23;20047;-75
2023/12/06 00:26:22;;;;;;;44.83;30.60;;;3.00;99.90;;;;;;6213018;23;20008;-74
2023/12/06 00:28:48;;;;;;;48.13;30.93;;;3.00;99.90;;;;;;6186417;23;20426;-74
2023/12/06 00:31:13;;;;;;;48.70;33.30;;;3.00;99.90;;;;;;6186900;23;20341;-74
2023/12/06 00:33:39;;;;;;;47.03;32.87;;;3.00;99.90;;;;;;6186720;23;21018;-74
2023/12/06 00:36:05;;;;;;;41.80;29.80;;;3.00;99.90;;;;;;6186386;23;20013;-75
2023/12/06 00:38:31;;;;;;;43.67;30.33;;;3.10;99.90;;;;;;6213243;23;20071;-74
2023/12/06 00:40:59;;;;;;;50.00;33.33;;;3.10;99.90;;;;;;6213261;23;20421;-75
2023/12/06 00:43:24;;;;;;;48.83;33.20;;;3.10;99.90;;;;;;6186226;23;20040;-75
2023/12/06 00:45:50;;;;;;;44.80;31.30;;;3.10;99.90;;;;;;6213368;23;19996;-74
2023/12/06 00:48:15;;;;;;;49.83;32.83;;;3.10;99.90;;;;;;6213111;23;20004;-75
2023/12/06 00:50:42;;;;;;;43.23;30.83;;;3.10;99.90;;;;;;6212823;23;20087;-75
2023/12/06 00:53:07;;;;;;;53.90;34.20;;;3.10;99.90;;;;;;6186550;23;20001;-75
2023/12/06 00:55:33;;;;;;;52.40;33.40;;;3.10;99.90;;;;;;6213572;23;20015;-75
2023/12/06 00:57:58;;;;;;;46.33;32.50;;;3.10;99.90;;;;;;6187309;23;20013;-75
2023/12/06 01:00:24;;;;;;;52.43;35.77;;;3.10;99.90;;;;;;6213121;23;20160;-76
2023/12/06 01:02:49;;;;;;;53.13;35.33;;;3.10;99.90;;;;;;6213897;23;20057;-73
2023/12/06 01:05:15;;;;;;;49.40;33.70;;;3.10;99.90;;;;;;6210700;23;20007;-73
2023/12/06 01:07:40;;;;;;;49.97;33.63;;;3.10;99.90;;;;;;6212268;23;20062;-73
2023/12/06 01:10:07;;;;;;;50.90;35.37;;;3.10;99.90;;;;;;6212690;23;20008;-72
2023/12/06 01:12:32;;;;;;;50.60;34.33;;;3.20;99.90;;;;;;6213906;23;20000;-72
2023/12/06 01:14:58;;;;;;;53.73;34.17;;;3.20;99.90;;;;;;6214340;23;20027;-72
2023/12/06 01:17:23;;;;;;;54.93;34.40;;;3.20;99.90;;;;;;6213371;23;20013;-72
2023/12/06 01:19:49;;;;;;;49.90;31.97;;;3.20;99.90;;;;;;6213161;23;19997;-72
2023/12/06 01:22:14;;;;;;;51.00;33.90;;;3.20;99.90;;;;;;6214026;23;20049;-72
2023/12/06 01:24:40;;;;;;;51.30;34.27;;;3.20;99.90;;;;;;6214138;23;20385;-72
2023/12/06 01:27:05;;;;;;;50.90;34.20;;;3.30;99.90;;;;;;6212640;23;20496;-72
2023/12/06 01:29:31;;;;;;;49.23;34.00;;;3.30;99.90;;;;;;6213870;23;20001;-72
2023/12/06 01:31:57;;;;;;;48.50;32.20;;;3.30;99.90;;;;;;6214110;23;20008;-72
2023/12/06 01:34:23;;;;;;;51.57;33.63;;;3.30;99.90;;;;;;6213325;23;20091;-72
2023/12/06 01:36:49;;;;;;;58.23;37.27;;;3.40;99.90;;;;;;6214032;23;20035;-72
2023/12/06 01:39:14;;;;;;;49.17;33.50;;;3.40;99.90;;;;;;6213756;23;19996;-72
2023/12/06 01:41:40;;;;;;;54.50;34.87;;;3.40;99.90;;;;;;6213842;23;20005;-72
2023/12/06 01:44:07;;;;;;;52.47;34.23;;;3.40;99.90;;;;;;6212970;23;20004;-72
2023/12/06 01:46:32;;;;;;;50.17;34.00;;;3.40;99.90;;;;;;6213818;23;20122;-72
2023/12/06 01:48:59;;;;;;;53.87;35.83;;;3.40;99.90;;;;;;6213274;23;20377;-72
2023/12/06 01:51:26;;;;;;;50.83;33.23;;;3.40;99.90;;;;;;6213284;23;20083;-72
2023/12/06 01:53:51;;;;;;;52.30;34.90;;;3.40;99.90;;;;;;6213508;23;20084;-72
2023/12/06 01:56:17;;;;;;;60.63;38.10;;;3.50;99.90;;;;;;6213371;23;20024;-72
2023/12/06 01:58:44;;;;;;;56.90;36.20;;;3.50;99.90;;;;;;6213788;23;20068;-72
2023/12/06 02:01:09;;;;;;;61.37;36.77;;;3.50;99.90;;;;;;6213082;23;20000;-72
2023/12/06 02:03:35;;;;;;;58.57;36.93;;;3.50;99.90;;;;;;6213358;23;20311;-72
2023/12/06 02:06:03;;;;;;;58.90;37.17;;;3.50;99.90;;;;;;6213171;23;19997;-72
2023/12/06 02:08:33;;;;;;;58.77;35.17;;;3.50;99.90;;;;;;6213368;23;20008;-72
2023/12/06 02:10:59;;;;;;;56.50;34.00;;;3.60;99.90;;;;;;6213325;23;20032;-72
2023/12/06 02:13:24;;;;;;;57.03;34.67;;;3.50;99.90;;;;;;6212888;23;20078;-72
2023/12/06 02:15:51;;;;;;;52.07;33.77;;;3.60;99.90;;;;;;6213407;23;20393;-72
2023/12/06 02:18:17;;;;;;;68.90;39.43;;;3.60;99.90;;;;;;6212836;23;20005;-72
2023/12/06 02:20:43;;;;;;;54.83;34.63;;;3.60;99.90;;;;;;6212791;23;20001;-72
2023/12/06 02:23:11;;;;;;;56.50;35.57;;;3.60;99.90;;;;;;6212519;23;20001;-72
2023/12/06 02:25:36;;;;;;;59.03;35.80;;;3.70;99.90;;;;;;6213465;23;19992;-72
2023/12/06 02:28:02;;;;;;;51.50;33.77;;;3.60;99.90;;;;;;6212615;23;20011;-72
2023/12/06 02:30:27;;;;;;;57.30;37.23;;;3.70;99.90;;;;;;6213662;23;20028;-72
2023/12/06 02:32:53;;;;;;;63.33;36.23;;;3.70;99.90;;;;;;6212826;23;20000;-72
2023/12/06 02:35:23;;;;;;;59.90;36.97;;;3.70;99.90;;;;;;6213163;23;20078;-72
2023/12/06 02:37:51;;;;;;;66.00;39.13;;;3.70;99.90;;;;;;6186385;23;20020;-72
2023/12/06 02:40:19;;;;;;;62.63;37.93;;;3.70;99.90;;;;;;6212955;23;20342;-72
2023/12/06 02:42:45;;;;;;;68.83;40.97;;;3.70;99.90;;;;;;6212793;23;20135;-72
2023/12/06 02:45:10;;;;;;;62.03;37.37;;;3.70;99.90;;;;;;6212868;23;20020;-72
2023/12/06 02:47:36;;;;;;;65.30;38.30;;;3.70;99.90;;;;;;6212433;23;20426;-72
2023/12/06 02:50:02;;;;;;;56.27;35.43;;;3.70;99.90;;;;;;6211826;23;20009;-72
2023/12/06 02:52:27;;;;;;;61.07;36.73;;;3.70;99.90;;;;;;6212583;23;20005;-72
2023/12/06 02:54:53;;;;;;;57.60;35.87;;;3.80;99.90;;;;;;6212325;23;20000;-72
2023/12/06 02:57:18;;;;;;;65.03;37.87;;;3.70;99.90;;;;;;6212794;23;20021;-72
2023/12/06 02:59:44;;;;;;;54.57;34.33;;;3.70;99.90;;;;;;6213184;23;20055;-72
2023/12/06 03:02:10;;;;;;;56.50;33.37;;;3.80;99.90;;;;;;6212390;23;20445;-72
2023/12/06 03:04:35;;;;;;;56.40;34.27;;;3.80;99.90;;;;;;6212761;23;20027;-72
2023/12/06 03:07:01;;;;;;;60.13;36.73;;;3.80;99.90;;;;;;6212199;23;20008;-72
2023/12/06 03:09:26;;;;;;;62.97;36.60;;;3.80;99.90;;;;;;6213233;23;20015;-72
2023/12/06 03:11:52;;;;;;;54.60;33.77;;;3.80;99.90;;;;;;6212680;23;20089;-72
2023/12/06 03:14:17;;;;;;;61.80;35.30;;;3.90;99.90;;;;;;6213328;23;20518;-72
2023/12/06 03:16:43;;;;;;;57.47;35.13;;;3.80;99.90;;;;;;6212255;23;20020;-72
2023/12/06 03:19:08;;;;;;;49.73;31.93;;;3.90;99.90;;;;;;6212351;23;20008;-72
2023/12/06 03:21:34;;;;;;;60.57;35.57;;;3.90;99.90;;;;;;6212628;23;20004;-72
2023/12/06 03:23:59;;;;;;;53.33;35.27;;;3.90;99.90;;;;;;6212402;23;20004;-72
2023/12/06 03:26:25;;;;;;;56.77;35.23;;;3.90;99.90;;;;;;6212827;23;20000;-72
2023/12/06 03:28:50;;;;;;;60.20;35.57;;;3.90;99.90;;;;;;6212874;23;20067;-72
2023/12/06 03:31:16;;;;;;;50.80;33.43;;;3.90;99.90;;;;;;6212505;23;20374;-72
2023/12/06 03:33:41;;;;;;;49.50;31.33;;;3.90;99.90;;;;;;6212645;23;19997;-72
2023/12/06 03:36:10;;;;;;;59.53;35.53;;;4.00;99.90;;;;;;6185361;23;20028;-72
2023/12/06 03:38:35;;;;;;;58.80;35.87;;;4.00;99.90;;;;;;6212677;23;20462;-72
2023/12/06 03:41:01;;;;;;;54.60;35.10;;;4.00;99.90;;;;;;6212065;23;20035;-72
2023/12/06 03:43:26;;;;;;;57.40;33.30;;;4.00;99.90;;;;;;6212395;23;20001;-72
2023/12/06 03:45:52;;;;;;;51.33;33.30;;;4.00;99.90;;;;;;6212637;23;20047;-72
2023/12/06 03:48:17;;;;;;;59.23;36.33;;;4.00;99.90;;;;;;6212398;23;20042;-72
2023/12/06 03:50:43;;;;;;;55.30;34.83;;;4.00;99.90;;;;;;6211682;23;20001;-72
2023/12/06 03:53:08;;;;;;;49.50;32.30;;;4.00;99.90;;;;;;6212408;23;20000;-72
2023/12/06 03:55:34;;;;;;;54.70;36.17;;;4.00;99.90;;;;;;6212263;23;19997;-72
2023/12/06 03:58:00;;;;;;;51.60;35.73;;;4.00;99.90;;;;;;6211820;23;20012;-72
2023/12/06 04:00:25;;;;;;;51.30;33.33;;;4.00;99.90;;;;;;6212372;23;20000;-72
2023/12/06 04:02:52;;;;;;;55.00;35.57;;;4.10;99.90;;;;;;6212388;23;20008;-72
2023/12/06 04:05:18;;;;;;;52.50;33.30;;;4.10;99.90;;;;;;6212583;23;20016;-72
2023/12/06 04:07:44;;;;;;;50.53;34.43;;;4.10;99.90;;;;;;6212205;23;20007;-72
2023/12/06 04:10:09;;;;;;;51.37;34.73;;;4.10;99.90;;;;;;6212134;23;20079;-72
2023/12/06 04:12:35;;;;;;;50.10;32.97;;;4.10;99.90;;;;;;6212183;23;20000;-72
2023/12/06 04:15:00;;;;;;;50.30;34.43;;;4.10;99.90;;;;;;6212184;23;20308;-72
2023/12/06 04:17:26;;;;;;;45.73;32.80;;;4.10;99.90;;;;;;6211785;23;20021;-72
2023/12/06 04:19:52;;;;;;;47.83;31.63;;;4.10;99.90;;;;;;6212269;23;20000;-72
2023/12/06 04:22:17;;;;;;;47.73;32.37;;;4.10;99.90;;;;;;6212307;23;20001;-72
2023/12/06 04:24:43;;;;;;;47.27;31.67;;;4.10;99.90;;;;;;6212315;23;20001;-72
2023/12/06 04:27:08;;;;;;;44.07;30.00;;;4.10;99.90;;;;;;6185034;23;20346;-72
2023/12/06 04:29:34;;;;;;;48.30;32.77;;;4.20;99.90;;;;;;6212271;23;20427;-72
2023/12/06 04:31:59;;;;;;;49.97;33.73;;;4.20;99.90;;;;;;6212235;23;20012;-72
2023/12/06 04:34:25;;;;;;;48.63;32.07;;;4.20;99.90;;;;;;6212257;23;20075;-72
2023/12/06 04:36:50;;;;;;;50.43;31.03;;;4.20;99.90;;;;;;6212540;23;20493;-72
2023/12/06 04:39:16;;;;;;;45.00;32.60;;;4.20;99.90;;;;;;6212017;23;20051;-72
2023/12/06 04:41:41;;;;;;;47.47;30.33;;;4.30;99.90;;;;;;6212142;23;20004;-72
2023/12/06 04:44:07;;;;;;;45.77;31.30;;;4.20;99.90;;;;;;6211809;23;20000;-72
2023/12/06 04:46:32;;;;;;;44.50;30.93;;;4.20;99.90;;;;;;6214130;23;20072;-72
2023/12/06 04:48:58;;;;;;;41.40;29.10;;;4.30;99.90;;;;;;6213729;23;20004;-72
2023/12/06 04:51:23;;;;;;;45.13;31.30;;;4.30;99.90;;;;;;6213789;23;20012;-72
2023/12/06 04:53:50;;;;;;;49.23;33.60;;;4.30;99.90;;;;;;6214211;23;20005;-72
2023/12/06 04:56:16;;;;;;;42.20;30.17;;;4.30;99.90;;;;;;6213572;23;20016;-72
2023/12/06 04:58:41;;;;;;;41.60;30.83;;;4.30;99.90;;;;;;6214235;23;20001;-72
2023/12/06 05:01:08;;;;;;;45.70;29.00;;;4.30;99.90;;;;;;6213654;23;20037;-71
2023/12/06 05:03:33;;;;;;;45.37;31.03;;;4.30;99.90;;;;;;6214303;23;20434;-71
2023/12/06 05:05:59;;;;;;;48.20;32.73;;;4.30;99.90;;;;;;6213504;23;20007;-71
2023/12/06 05:08:25;;;;;;;45.47;31.97;;;4.40;99.90;;;;;;6213773;23;20007;-71
2023/12/06 05:10:50;;;;;;;41.50;29.80;;;4.30;99.90;;;;;;6213685;23;20001;-71
2023/12/06 05:13:16;;;;;;;46.27;30.20;;;4.30;99.90;;;;;;6213978;23;20001;-71
2023/12/06 05:15:41;;;;;;;44.13;29.53;;;4.30;99.90;;;;;;6214161;23;20008;-71
2023/12/06 05:18:07;;;;;;;44.17;29.60;;;4.40;99.90;;;;;;6213316;23;20009;-71
2023/12/06 05:20:33;;;;;;;38.03;26.77;;;4.30;99.90;;;;;;6213852;23;20004;-71
2023/12/06 05:22:58;;;;;;;38.47;27.23;;;4.40;99.90;;;;;;6211841;23;20001;-71
2023/12/06 05:25:24;;;;;;;39.33;27.67;;;4.30;99.90;;;;;;6212276;23;20004;-71
2023/12/06 05:27:49;;;;;;;43.70;28.73;;;4.40;99.90;;;;;;6212930;23;20005;-71
2023/12/06 05:30:15;;;;;;;37.43;26.43;;;4.40;99.90;;;;;;6212551;23;20059;-71
2023/12/06 05:32:40;;;;;;;36.63;29.30;;;4.40;99.90;;;;;;6213805;23;20005;-74
2023/12/06 05:35:07;;;;;;;38.37;26.97;;;4.40;99.90;;;;;;6186585;23;20008;-74
2023/12/06 05:37:32;;;;;;;40.10;26.13;;;4.40;99.90;;;;;;6214126;23;20315;-75
2023/12/06 05:39:58;;;;;;;43.80;30.13;;;4.40;99.90;;;;;;6214190;23;20004;-74
2023/12/06 05:42:24;;;;;;;36.40;26.37;;;4.40;99.90;;;;;;6187484;23;20005;-74
2023/12/06 05:44:49;;;;;;;39.00;26.07;;;4.40;99.90;;;;;;6187715;23;20009;-74
2023/12/06 05:47:15;;;;;;;37.90;25.80;;;4.50;99.90;;;;;;6213850;23;20007;-74
2023/12/06 05:49:41;;;;;;;35.10;24.80;;;4.50;99.90;;;;;;6212913;23;20011;-74
2023/12/06 05:52:06;;;;;;;40.37;27.30;;;4.50;99.90;;;;;;6213948;23;20015;-74
2023/12/06 05:54:32;;;;;;;36.60;26.87;;;4.50;99.90;;;;;;6211757;23;20032;-75
2023/12/06 05:56:58;;;;;;;44.87;28.60;;;4.50;99.90;;;;;;6213321;23;20001;-75
2023/12/06 05:59:23;;;;;;;40.40;28.17;;;4.50;99.90;;;;;;6187668;23;20082;-75
2023/12/06 06:01:49;;;;;;;36.53;25.30;;;4.60;99.90;;;;;;6214347;23;20012;-75
2023/12/06 06:04:15;;;;;;;41.23;28.27;;;4.50;99.90;;;;;;6215470;23;20004;-75
2023/12/06 06:06:41;;;;;;;39.87;28.30;;;4.60;99.90;;;;;;6187722;23;20016;-74
2023/12/06 06:09:07;;;;;;;37.23;25.87;;;4.60;99.90;;;;;;6187659;23;20005;-74
2023/12/06 06:11:32;;;;;;;38.17;27.30;;;4.60;99.90;;;;;;6187623;23;20004;-75
2023/12/06 06:13:58;;;;;;;37.77;27.03;;;4.60;99.90;;;;;;6214148;23;20004;-75
2023/12/06 06:16:23;;;;;;;42.00;28.57;;;4.60;99.90;;;;;;6212791;23;20087;-75
2023/12/06 06:18:49;;;;;;;39.57;27.80;;;4.60;99.90;;;;;;6213260;23;20080;-75
2023/12/06 06:21:15;;;;;;;34.57;26.27;;;4.60;99.90;;;;;;6187234;23;19997;-75
2023/12/06 06:23:40;;;;;;;37.77;27.13;;;4.60;99.90;;;;;;6187066;23;20014;-76
2023/12/06 06:26:08;;;;;;;36.90;25.30;;;4.70;99.90;;;;;;6214039;23;20031;-75
2023/12/06 06:28:34;;;;;;;39.57;27.53;;;4.70;99.90;;;;;;6213809;23;20031;-75
2023/12/06 06:31:00;;;;;;;39.03;26.57;;;4.70;99.90;;;;;;6207947;23;20083;-76
2023/12/06 06:33:25;;;;;;;39.03;27.53;;;4.70;99.90;;;;;;6178866;23;20000;-75
2023/12/06 06:35:51;;;;;;;40.13;29.07;;;4.70;99.90;;;;;;6206672;23;20027;-76
2023/12/06 06:38:16;;;;;;;39.40;28.53;;;4.70;99.90;;;;;;6179551;23;20017;-75
2023/12/06 06:40:42;;;;;;;34.90;27.20;;;4.70;99.90;;;;;;6202806;23;20007;-75
2023/12/06 06:43:08;;;;;;;36.93;28.50;;;4.70;99.90;;;;;;6212625;23;20084;-75
2023/12/06 06:45:35;;;;;;;43.20;29.10;;;4.70;99.90;;;;;;6210890;23;20845;-75
2023/12/06 06:48:01;;;;;;;35.43;26.07;;;4.70;99.90;;;;;;6202377;23;20011;-76
2023/12/06 06:50:26;;;;;;;35.17;24.80;;;4.70;99.90;;;;;;6204023;23;20001;-76
2023/12/06 06:52:52;;;;;;;35.03;26.90;;;4.80;99.90;;;;;;6203133;23;20004;-75
2023/12/06 06:55:18;;;;;;;38.80;26.13;;;4.80;99.90;;;;;;6203017;23;20334;-75
2023/12/06 06:57:43;;;;;;;40.83;27.47;;;4.80;99.90;;;;;;6205165;23;20036;-76
2023/12/06 07:00:13;;;;;;;35.13;25.77;;;4.80;99.90;;;;;;6213351;23;20000;-74
2023/12/06 07:02:38;;;;;;;31.80;24.77;;;4.80;99.90;;;;;;6186310;23;20016;-74
2023/12/06 07:05:06;;;;;;;37.57;26.77;;;4.80;99.90;;;;;;6213773;23;20071;-74
2023/12/06 07:07:31;;;;;;;40.83;25.63;;;4.80;99.90;;;;;;6187023;23;20004;-74
2023/12/06 07:09:57;;;;;;;37.60;25.00;;;4.90;99.90;;;;;;6187904;23;20005;-75
2023/12/06 07:12:22;;;;;;;37.47;25.90;;;4.90;99.90;;;;;;6214149;23;20083;-75
2023/12/06 07:14:48;;;;;;;39.33;23.93;;;4.90;99.90;;;;;;6188417;23;20008;-75
2023/12/06 07:17:14;;;;;;;35.37;24.73;;;4.90;99.90;;;;;;6212001;23;20715;-75
2023/12/06 07:19:39;;;;;;;36.47;27.03;;;4.90;99.90;;;;;;6212456;23;20005;-75
2023/12/06 07:22:06;;;;;;;39.93;27.33;;;4.90;99.90;;;;;;6185396;23;20027;-74
2023/12/06 07:24:31;;;;;;;36.47;24.77;;;4.90;99.90;;;;;;6212441;23;19997;-75
2023/12/06 07:26:57;;;;;;;41.40;26.57;;;5.00;99.90;;;;;;6212277;23;20004;-74
2023/12/06 07:29:22;;;;;;;33.17;23.67;;;5.00;99.90;;;;;;6211545;23;20005;-75
2023/12/06 07:31:50;;;;;;;34.30;24.57;;;5.00;99.90;;;;;;6212339;23;20004;-75
2023/12/06 07:34:17;;;;;;;30.93;24.37;;;5.00;99.90;;;;;;6212332;23;20455;-74
2023/12/06 07:36:44;;;;;;;30.77;23.17;;;5.00;99.90;;;;;;6212608;23;20004;-74
2023/12/06 07:39:11;;;;;;;35.93;26.80;;;5.00;99.90;;;;;;6212476;23;20023;-74
2023/12/06 07:41:36;;;;;;;28.70;22.47;;;5.00;99.90;;;;;;6212362;23;20449;-74
2023/12/06 07:44:02;;;;;;;33.27;23.67;;;5.00;99.90;;;;;;6212440;23;20024;-74
2023/12/06 07:46:27;;;;;;;30.10;22.23;;;5.00;99.90;;;;;;6212502;23;20008;-74
2023/12/06 07:48:53;;;;;;;37.07;24.03;;;5.00;99.90;;;;;;6212291;23;20007;-74
2023/12/06 07:51:19;;;;;;;28.97;21.80;;;5.00;99.90;;;;;;6212332;23;20032;-74
2023/12/06 07:53:44;;;;;;;30.10;21.27;;;5.00;99.90;;;;;;6212463;23;20016;-74
2023/12/06 07:56:10;;;;;;;27.87;21.50;;;5.10;99.90;;;;;;6212202;23;20333;-74
2023/12/06 07:58:35;;;;;;;28.00;20.53;;;5.00;99.90;;;;;;6212873;23;20391;-74
2023/12/06 08:01:01;;;;;;;32.30;21.87;;;5.10;99.90;;;;;;6211869;23;20473;-74
2023/12/06 08:03:29;;;;;;;27.30;20.93;;;5.10;99.90;;;;;;6212473;23;19997;-74
2023/12/06 08:05:54;;;;;;;26.73;20.53;;;5.10;99.90;;;;;;6212236;23;20055;-74
2023/12/06 08:08:20;;;;;;;27.83;21.70;;;5.10;99.90;;;;;;6212035;23;20036;-74
2023/12/06 08:10:45;;;;;;;31.90;20.77;;;5.10;99.90;;;;;;6212029;23;20004;-74
2023/12/06 08:13:11;;;;;;;30.33;21.00;;;5.10;99.90;;;;;;6211912;23;20000;-74
2023/12/06 08:15:36;;;;;;;27.23;21.07;;;5.10;99.90;;;;;;6212630;23;20080;-74
2023/12/06 08:18:02;;;;;;;36.20;20.53;;;5.20;99.90;;;;;;6185040;23;20005;-74
2023/12/06 08:20:28;;;;;;;26.70;20.23;;;5.20;99.90;;;;;;6213247;23;20001;-74
2023/12/06 08:22:54;;;;;;;27.73;19.37;;;5.20;99.90;;;;;;6214233;23;20334;-74
2023/12/06 08:25:21;;;;;;;34.27;21.33;;;5.20;99.90;;;;;;6214215;23;20071;-74
2023/12/06 08:27:46;;;;;;;27.23;20.23;;;5.20;99.90;;;;;;6214295;23;20001;-74
2023/12/06 08:30:12;;;;;;;26.77;19.30;;;5.30;99.90;;;;;;6214142;23;20012;-74
2023/12/06 08:32:38;;;;;;;28.87;20.30;;;5.30;99.90;;;;;;6214316;23;20048;-74
2023/12/06 08:35:04;;;;;;;28.63;18.93;;;5.30;99.90;;;;;;6213963;23;19996;-74
2023/12/06 08:37:29;;;;;;;29.43;20.60;;;5.30;99.90;;;;;;6213391;23;20084;-75
2023/12/06 08:39:55;;;;;;;25.30;18.50;;;5.30;99.90;;;;;;6214004;23;19996;-75
2023/12/06 08:42:20;;;;;;;24.90;19.43;;;5.30;99.90;;;;;;6213394;23;19997;-75
2023/12/06 08:44:46;;;;;;;28.43;21.23;;;5.30;99.90;;;;;;6213704;23;20005;-75
2023/12/06 08:47:12;;;;;;;29.03;19.53;;;5.40;99.90;;;;;;6212924;23;20004;-75
2023/12/06 08:49:38;;;;;;;25.30;18.63;;;5.40;99.90;;;;;;6213088;23;20004;-75
2023/12/06 08:52:08;;;;;;;26.93;19.17;;;5.40;99.90;;;;;;6212927;23;20005;-75
2023/12/06 08:54:34;;;;;;;25.57;18.10;;;5.40;99.90;;;;;;6213376;23;20001;-76
2023/12/06 08:57:00;;;;;;;21.43;17.07;;;5.50;99.90;;;;;;6212704;23;20457;-76
2023/12/06 08:59:26;;;;;;;27.07;18.43;;;5.50;99.90;;;;;;6213340;23;20063;-76
2023/12/06 09:01:52;;;;;;;23.73;17.93;;;5.50;99.90;;;;;;6212644;23;19997;-76
2023/12/06 09:04:19;;;;;;;24.80;17.93;;;5.50;99.90;;;;;;6213080;23;20001;-74
2023/12/06 09:06:44;;;;;;;26.33;19.23;;;5.60;99.90;;;;;;6213468;23;20087;-76
2023/12/06 09:09:11;;;;;;;24.93;18.13;;;5.60;99.90;;;;;;6213900;23;20031;-75
2023/12/06 09:11:37;;;;;;;28.00;18.67;;;5.60;99.90;;;;;;6214129;23;20024;-74
2023/12/06 09:14:02;;;;;;;23.63;18.13;;;5.60;99.90;;;;;;6212910;23;20445;-74
2023/12/06 09:16:28;;;;;;;25.90;17.67;;;5.60;99.90;;;;;;6213294;23;20016;-75
2023/12/06 09:18:55;;;;;;;23.90;18.33;;;5.60;99.90;;;;;;6213230;23;20430;-75
2023/12/06 09:21:20;;;;;;;27.20;18.57;;;5.60;99.90;;;;;;6213371;23;20001;-75
2023/12/06 09:23:47;;;;;;;25.73;18.37;;;5.60;99.90;;;;;;6213561;23;20308;-75
2023/12/06 09:26:13;;;;;;;23.67;17.90;;;5.70;99.90;;;;;;6213087;23;20072;-74
2023/12/06 09:28:38;;;;;;;23.40;18.10;;;5.60;99.90;;;;;;6212237;23;20036;-74
2023/12/06 09:31:05;;;;;;;25.20;19.17;;;5.70;99.90;;;;;;6211918;23;20004;-74
2023/12/06 09:33:31;;;;;;;28.57;20.47;;;5.70;99.90;;;;;;6213103;23;20068;-74
2023/12/06 09:35:56;;;;;;;23.23;17.50;;;5.70;99.90;;;;;;6186336;23;20342;-74
2023/12/06 09:38:22;;;;;;;27.87;18.90;;;5.70;99.90;;;;;;6186273;23;20008;-75
2023/12/06 09:40:48;;;;;;;22.70;18.90;;;5.70;99.90;;;;;;6212465;23;20007;-75
2023/12/06 09:43:14;;;;;;;22.87;17.83;;;5.80;99.90;;;;;;6213291;23;20001;-75
2023/12/06 09:45:40;;;;;;;26.83;18.10;;;5.80;99.90;;;;;;6213247;23;20326;-75
2023/12/06 09:48:06;;;;;;;25.30;18.67;;;5.80;99.90;;;;;;6212423;23;20034;-74
2023/12/06 09:50:31;;;;;;;23.63;18.50;;;5.70;99.90;;;;;;6212580;23;20062;-74
2023/12/06 09:52:57;;;;;;;25.63;19.00;;;5.70;99.90;;;;;;6213220;23;20007;-74
2023/12/06 09:55:26;;;;;;;27.30;18.73;;;5.70;99.90;;;;;;6212471;23;20005;-74
2023/12/06 09:57:53;;;;;;;28.47;19.73;;;5.60;99.90;;;;;;6213398;23;20023;-74
2023/12/06 10:00:20;;;;;;;26.93;20.13;;;5.60;99.90;;;;;;6212880;23;19997;-74
2023/12/06 10:02:48;;;;;;;31.73;18.73;;;5.60;99.90;;;;;;6211700;23;20079;-74
2023/12/06 10:05:14;;;;;;;26.43;19.80;;;5.60;99.90;;;;;;6212993;23;19993;-74
2023/12/06 10:07:40;;;;;;;24.63;17.63;;;5.60;99.90;;;;;;6186031;23;20075;-74
2023/12/06 10:10:16;;;;;;;23.40;17.90;;;5.60;99.90;;;;;;6185190;23;20005;-74
2023/12/06 10:13:08;;;;;;;29.27;18.97;;;5.60;99.90;;;;;;6212589;23;20063;-74
2023/12/06 10:15:42;;;;;;;28.67;19.40;;;5.70;99.90;;;;;;6206388;23;20013;-74
2023/12/06 10:18:10;;;;;;;23.07;19.40;;;5.70;99.90;;;;;;6212143;23;20080;-74
2023/12/06 10:20:36;;;;;;;24.53;17.93;;;5.60;99.90;;;;;;6212321;23;20004;-74
2023/12/06 10:23:01;;;;;;;24.17;16.93;;;5.70;99.90;;;;;;6212175;23;20005;-74
2023/12/06 10:25:37;;;;;;;23.00;15.97;;;5.70;99.90;;;;;;6212994;23;20005;-75
2023/12/06 10:28:03;;;;;;;21.57;16.77;;;5.70;99.90;;;;;;6212282;23;20032;-75
2023/12/06 10:30:28;;;;;;;26.20;15.63;;;5.70;99.90;;;;;;6212651;23;20016;-75
2023/12/06 10:32:56;;;;;;;23.67;16.33;;;5.70;99.90;;;;;;6212963;23;20004;-75
2023/12/06 10:35:24;;;;;;;21.20;15.90;;;5.70;99.90;;;;;;6212114;23;20051;-75
2023/12/06 10:37:50;;;;;;;21.57;15.43;;;5.70;99.90;;;;;;6212932;23;20011;-75
2023/12/06 10:40:18;;;;;;;23.13;15.07;;;5.70;99.90;;;;;;6212041;23;20418;-74
2023/12/06 10:42:50;;;;;;;25.67;15.63;;;5.80;99.90;;;;;;6212760;23;19996;-74
2023/12/06 10:45:17;;;;;;;20.83;14.87;;;5.80;99.90;;;;;;6212654;23;20004;-74
2023/12/06 10:47:44;;;;;;;18.87;14.73;;;5.80;99.90;;;;;;6212407;23;20004;-74
2023/12/06 10:50:11;;;;;;;20.07;14.93;;;5.90;99.90;;;;;;6213080;23;20427;-74
2023/12/06 10:52:38;;;;;;;22.27;15.27;;;5.90;99.90;;;;;;6212505;23;20005;-74
2023/12/06 10:55:06;;;;;;;21.77;14.87;;;5.90;99.90;;;;;;6211963;23;20430;-74
2023/12/06 10:57:32;;;;;;;20.03;14.20;;;5.90;99.90;;;;;;6211939;23;20012;-74
2023/12/06 10:59:59;;;;;;;21.47;14.97;;;5.90;99.90;;;;;;6211236;23;20001;-74
2023/12/06 11:02:25;;;;;;;20.40;15.23;;;5.90;99.90;;;;;;6211560;23;20076;-75
2023/12/06 11:04:54;;;;;;;23.30;15.90;;;5.90;99.90;;;;;;6185731;23;20036;-75
2023/12/06 11:07:38;;;;;;;19.40;15.57;;;5.90;99.90;;;;;;6212036;23;20008;-75
2023/12/06 11:10:42;;;;;;;16.35;12.93;;;5.90;99.90;;;;;;6211355;23;20008;-75
2023/12/06 11:13:33;;;;;;;18.98;14.63;;;6.00;99.90;;;;;;6210865;23;20088;-75
2023/12/06 11:16:10;;;;;;;16.93;13.50;;;6.00;99.90;;;;;;6210718;23;20004;-75
2023/12/06 11:18:50;;;;;;;17.73;14.13;;;6.00;99.90;;;;;;6185485;23;20059;-77
2023/12/06 11:21:18;;;;;;;21.30;14.40;;;6.00;99.90;;;;;;6212636;23;20028;-77
2023/12/06 11:23:45;;;;;;;17.83;14.27;;;6.00;99.90;;;;;;6213181;23;20001;-75
2023/12/06 11:26:11;;;;;;;16.30;13.63;;;6.00;99.90;;;;;;6212243;23;19997;-75
2023/12/06 11:28:41;;;;;;;17.07;12.77;;;6.10;99.90;;;;;;6186078;23;19997;-75
2023/12/06 11:31:11;;;;;;;16.37;13.03;;;6.10;99.90;;;;;;6211458;23;20067;-75
2023/12/06 11:33:37;;;;;;;16.97;12.40;;;6.20;99.90;;;;;;6212123;23;20001;-75
2023/12/06 11:36:03;;;;;;;14.97;12.80;;;6.20;99.90;;;;;;6211479;23;20018;-75
2023/12/06 11:38:36;;;;;;;18.87;13.73;;;6.20;99.90;;;;;;6212269;23;20008;-74
2023/12/06 11:41:06;;;;;;;17.33;13.27;;;6.30;99.90;;;;;;6211498;23;20006;-74
2023/12/06 11:43:49;;;;;;;19.03;12.70;;;6.30;99.90;;;;;;6212174;23;20008;-74
2023/12/06 11:46:15;;;;;;;15.00;12.70;;;6.40;99.90;;;;;;6185897;23;20450;-74
2023/12/06 11:48:44;;;;;;;17.47;12.47;;;6.40;99.90;;;;;;6185663;23;20339;-74
2023/12/06 11:51:24;;;;;;;21.67;13.80;;;6.50;99.90;;;;;;6212181;23;20071;-74
2023/12/06 11:53:50;;;;;;;18.70;13.63;;;6.50;99.90;;;;;;6212527;23;20084;-74
2023/12/06 11:56:21;;;;;;;18.53;13.67;;;6.50;99.90;;;;;;6212143;23;20330;-75
2023/12/06 11:58:49;;;;;;;18.77;13.17;;;6.40;99.90;;;;;;6211988;23;20043;-75
2023/12/06 12:01:16;;;;;;;19.83;13.53;;;6.40;99.90;;;;;;6212225;23;19997;-75
2023/12/06 12:03:44;;;;;;;18.23;13.23;;;6.40;99.90;;;;;;6212125;23;20001;-75
2023/12/06 12:06:10;;;;;;;20.57;13.23;;;6.40;99.90;;;;;;6185675;23;20008;-74
2023/12/06 12:08:36;;;;;;;20.90;12.73;;;6.40;99.90;;;;;;6211995;23;20064;-74
2023/12/06 12:11:02;;;;;;;18.20;13.20;;;6.40;99.90;;;;;;6185363;23;20094;-74
2023/12/06 12:13:28;;;;;;;21.43;13.50;;;6.40;99.90;;;;;;6212119;23;20331;-74
2023/12/06 12:15:57;;;;;;;17.37;12.67;;;6.50;99.90;;;;;;6212262;23;20043;-74
2023/12/06 12:18:24;;;;;;;19.67;14.80;;;6.50;99.90;;;;;;6211747;23;20377;-74
2023/12/06 12:20:50;;;;;;;21.40;15.20;;;6.60;99.90;;;;;;6212141;23;20068;-74
2023/12/06 12:23:15;;;;;;;24.10;17.10;;;6.60;99.90;;;;;;6185626;23;20032;-74
2023/12/06 12:25:49;;;;;;;19.63;15.10;;;6.60;99.90;;;;;;6211258;23;20424;-74
2023/12/06 12:28:18;;;;;;;18.98;15.07;;;6.70;99.90;;;;;;6212527;23;20346;-74
2023/12/06 12:30:54;;;;;;;23.90;14.80;;;6.70;99.90;;;;;;6212194;23;20007;-74
2023/12/06 12:33:20;;;;;;;18.40;14.23;;;6.80;99.90;;;;;;6211900;23;20405;-74